sensor_id;sensor_type;location;lat;lon;timestamp;temperature;humidity
66568;DHT22;53422;49.296;6.900;2023-01-01T00:00:14;11.10;99.90
66568;DHT22;53422;49.296;6.900;2023-01-01T00:02:40;11.20;99.90
66568;DHT22;53422;49.296;6.900;2023-01-01T00:05:06;11.10;99.90
66568;DHT22;53422;49.296;6.900;2023-01-01T00:07:32;11.00;99.90
66568;DHT22;53422;49.296;6.900;2023-01-01T00:09:57;11.00;99.90
66568;DHT22;53422;49.296;6.900;2023-01-01T00:12:41;11.00;99.90
66568;DHT22;53422;49.296;6.900;2023-01-01T00:15:07;10.90;99.90
66568;DHT22;53422;49.296;6.900;2023-01-01T00:17:33;10.90;99.90
66568;DHT22;53422;49.296;6.900;2023-01-01T00:19:58;10.90;99.90
66568;DHT22;53422;49.296;6.900;2023-01-01T00:22:24;10.90;99.90
66568;DHT22;53422;49.296;6.900;2023-01-01T00:24:50;10.90;99.90
66568;DHT22;53422;49.296;6.900;2023-01-01T00:27:16;11.00;99.90
66568;DHT22;53422;49.296;6.900;2023-01-01T00:29:41;10.90;99.90
66568;DHT22;53422;49.296;6.900;2023-01-01T00:32:07;11.00;99.90
66568;DHT22;53422;49.296;6.900;2023-01-01T00:34:33;11.00;99.90
66568;DHT22;53422;49.296;6.900;2023-01-01T00:36:58;11.00;99.90
66568;DHT22;53422;49.296;6.900;2023-01-01T00:39:24;10.90;99.90
66568;DHT22;53422;49.296;6.900;2023-01-01T00:41:49;10.90;99.90
66568;DHT22;53422;49.296;6.900;2023-01-01T00:44:15;10.90;99.90
66568;DHT22;53422;49.296;6.900;2023-01-01T00:46:40;10.90;99.90
66568;DHT22;53422;49.296;6.900;2023-01-01T00:49:06;11.00;99.90
66568;DHT22;53422;49.296;6.900;2023-01-01T00:51:32;11.00;99.90
66568;DHT22;53422;49.296;6.900;2023-01-01T00:53:57;10.90;99.90
66568;DHT22;53422;49.296;6.900;2023-01-01T00:56:23;10.90;99.90
66568;DHT22;53422;49.296;6.900;2023-01-01T00:58:49;10.90;99.90
66568;DHT22;53422;49.296;6.900;2023-01-01T01:01:15;10.90;99.90
66568;DHT22;53422;49.296;6.900;2023-01-01T01:03:40;10.90;99.90
66568;DHT22;53422;49.296;6.900;2023-01-01T01:06:09;10.90;99.90
66568;DHT22;53422;49.296;6.900;2023-01-01T01:08:37;10.90;99.90
66568;DHT22;53422;49.296;6.900;2023-01-01T01:11:17;10.90;99.90
66568;DHT22;53422;49.296;6.900;2023-01-01T01:13:44;11.00;99.90
66568;DHT22;53422;49.296;6.900;2023-01-01T01:16:13;10.90;99.90
66568;DHT22;53422;49.296;6.900;2023-01-01T01:18:40;10.90;99.90
66568;DHT22;53422;49.296;6.900;2023-01-01T01:21:07;11.00;99.90
66568;DHT22;53422;49.296;6.900;2023-01-01T01:23:33;10.90;99.90
66568;DHT22;53422;49.296;6.900;2023-01-01T01:26:09;10.90;99.90
66568;DHT22;53422;49.296;6.900;2023-01-01T01:28:35;10.90;99.90
66568;DHT22;53422;49.296;6.900;2023-01-01T01:31:01;10.90;99.90
66568;DHT22;53422;49.296;6.900;2023-01-01T01:33:27;10.90;99.90
66568;DHT22;53422;49.296;6.900;2023-01-01T01:35:52;10.80;99.90
66568;DHT22;53422;49.296;6.900;2023-01-01T01:38:18;10.90;99.90
66568;DHT22;53422;49.296;6.900;2023-01-01T01:40:43;11.00;99.90
66568;DHT22;53422;49.296;6.900;2023-01-01T01:43:22;10.90;99.90
66568;DHT22;53422;49.296;6.900;2023-01-01T01:45:51;10.90;99.90
66568;DHT22;53422;49.296;6.900;2023-01-01T01:48:18;10.90;99.90
66568;DHT22;53422;49.296;6.900;2023-01-01T01:50:46;10.90;99.90
66568;DHT22;53422;49.296;6.900;2023-01-01T01:53:16;10.80;99.90
66568;DHT22;53422;49.296;6.900;2023-01-01T01:55:50;10.80;99.90
66568;DHT22;53422;49.296;6.900;2023-01-01T01:58:16;10.80;99.90
66568;DHT22;53422;49.296;6.900;2023-01-01T02:00:42;10.80;99.90
66568;DHT22;53422;49.296;6.900;2023-01-01T02:03:23;10.90;99.90
66568;DHT22;53422;49.296;6.900;2023-01-01T02:05:51;10.90;99.90
66568;DHT22;53422;49.296;6.900;2023-01-01T02:08:18;10.80;99.90
66568;DHT22;53422;49.296;6.900;2023-01-01T02:10:45;10.90;99.90
66568;DHT22;53422;49.296;6.900;2023-01-01T02:13:11;10.90;99.90
66568;DHT22;53422;49.296;6.900;2023-01-01T02:15:49;10.80;99.90
66568;DHT22;53422;49.296;6.900;2023-01-01T02:18:22;10.70;99.90
66568;DHT22;53422;49.296;6.900;2023-01-01T02:29:41;10.90;99.90
66568;DHT22;53422;49.296;6.900;2023-01-01T02:32:30;10.80;99.90
66568;DHT22;53422;49.296;6.900;2023-01-01T02:34:57;10.80;99.90
66568;DHT22;53422;49.296;6.900;2023-01-01T02:37:45;10.80;99.90
66568;DHT22;53422;49.296;6.900;2023-01-01T02:40:12;10.80;99.90
66568;DHT22;53422;49.296;6.900;2023-01-01T02:42:38;10.80;99.90
66568;DHT22;53422;49.296;6.900;2023-01-01T02:45:05;10.80;99.90
66568;DHT22;53422;49.296;6.900;2023-01-01T02:47:32;10.80;99.90
66568;DHT22;53422;49.296;6.900;2023-01-01T02:50:12;10.80;99.90
66568;DHT22;53422;49.296;6.900;2023-01-01T02:53:31;10.70;99.90
66568;DHT22;53422;49.296;6.900;2023-01-01T02:58:42;10.80;99.90
66568;DHT22;53422;49.296;6.900;2023-01-01T03:01:36;10.80;99.90
66568;DHT22;53422;49.296;6.900;2023-01-01T03:10:06;10.80;99.90
66568;DHT22;53422;49.296;6.900;2023-01-01T03:13:06;10.70;99.90
66568;DHT22;53422;49.296;6.900;2023-01-01T03:15:42;10.70;99.90
66568;DHT22;53422;49.296;6.900;2023-01-01T03:18:27;10.80;99.90
66568;DHT22;53422;49.296;6.900;2023-01-01T03:20:58;10.80;99.90
66568;DHT22;53422;49.296;6.900;2023-01-01T03:23:25;10.80;99.90
66568;DHT22;53422;49.296;6.900;2023-01-01T03:25:55;10.80;99.90
66568;DHT22;53422;49.296;6.900;2023-01-01T03:28:28;10.80;99.90
66568;DHT22;53422;49.296;6.900;2023-01-01T03:30:55;10.70;99.90
66568;DHT22;53422;49.296;6.900;2023-01-01T03:33:38;10.70;99.90
66568;DHT22;53422;49.296;6.900;2023-01-01T03:36:17;10.60;99.90
66568;DHT22;53422;49.296;6.900;2023-01-01T03:38:51;10.70;99.90
66568;DHT22;53422;49.296;6.900;2023-01-01T03:41:46;10.70;99.90
66568;DHT22;53422;49.296;6.900;2023-01-01T03:44:34;10.70;99.90
66568;DHT22;53422;49.296;6.900;2023-01-01T03:47:03;10.70;99.90
66568;DHT22;53422;49.296;6.900;2023-01-01T03:49:29;10.70;99.90
66568;DHT22;53422;49.296;6.900;2023-01-01T03:52:00;10.70;99.90
66568;DHT22;53422;49.296;6.900;2023-01-01T04:00:07;10.70;99.90
66568;DHT22;53422;49.296;6.900;2023-01-01T04:05:13;10.60;99.90
66568;DHT22;53422;49.296;6.900;2023-01-01T04:07:39;10.70;99.90
66568;DHT22;53422;49.296;6.900;2023-01-01T04:10:06;10.70;99.90
66568;DHT22;53422;49.296;6.900;2023-01-01T04:12:49;10.60;99.90
66568;DHT22;53422;49.296;6.900;2023-01-01T04:15:16;10.60;99.90
66568;DHT22;53422;49.296;6.900;2023-01-01T04:17:42;10.60;99.90
66568;DHT22;53422;49.296;6.900;2023-01-01T04:20:09;10.60;99.90
66568;DHT22;53422;49.296;6.900;2023-01-01T04:22:34;10.60;99.90
66568;DHT22;53422;49.296;6.900;2023-01-01T04:25:00;10.60;99.90
66568;DHT22;53422;49.296;6.900;2023-01-01T04:27:26;10.60;99.90
66568;DHT22;53422;49.296;6.900;2023-01-01T04:29:52;10.50;99.90
66568;DHT22;53422;49.296;6.900;2023-01-01T04:32:18;10.60;99.90
66568;DHT22;53422;49.296;6.900;2023-01-01T04:34:43;10.50;99.90
66568;DHT22;53422;49.296;6.900;2023-01-01T04:37:09;10.50;99.90
66568;DHT22;53422;49.296;6.900;2023-01-01T04:39:34;10.60;99.90
66568;DHT22;53422;49.296;6.900;2023-01-01T04:42:00;10.60;99.90
66568;DHT22;53422;49.296;6.900;2023-01-01T04:44:26;10.60;99.90
66568;DHT22;53422;49.296;6.900;2023-01-01T04:46:51;10.70;99.90
66568;DHT22;53422;49.296;6.900;2023-01-01T04:49:17;10.60;99.90
66568;DHT22;53422;49.296;6.900;2023-01-01T04:51:42;10.60;99.90
66568;DHT22;53422;49.296;6.900;2023-01-01T04:54:08;10.70;99.90
66568;DHT22;53422;49.296;6.900;2023-01-01T04:56:34;10.70;99.90
66568;DHT22;53422;49.296;6.900;2023-01-01T04:58:59;10.60;99.90
66568;DHT22;53422;49.296;6.900;2023-01-01T05:01:26;10.50;99.90
66568;DHT22;53422;49.296;6.900;2023-01-01T05:03:53;10.60;99.90
66568;DHT22;53422;49.296;6.900;2023-01-01T05:06:20;10.60;99.90
66568;DHT22;53422;49.296;6.900;2023-01-01T05:08:48;10.60;99.90
66568;DHT22;53422;49.296;6.900;2023-01-01T05:11:19;10.70;99.90
66568;DHT22;53422;49.296;6.900;2023-01-01T05:13:47;10.60;99.90
66568;DHT22;53422;49.296;6.900;2023-01-01T05:16:15;10.60;99.90
66568;DHT22;53422;49.296;6.900;2023-01-01T05:18:42;10.60;99.90
66568;DHT22;53422;49.296;6.900;2023-01-01T05:21:11;10.50;99.90
66568;DHT22;53422;49.296;6.900;2023-01-01T05:23:37;10.50;99.90
66568;DHT22;53422;49.296;6.900;2023-01-01T05:26:17;10.60;99.90
66568;DHT22;53422;49.296;6.900;2023-01-01T05:28:43;10.60;99.90
66568;DHT22;53422;49.296;6.900;2023-01-01T05:31:14;10.60;99.90
66568;DHT22;53422;49.296;6.900;2023-01-01T05:33:40;10.60;99.90
66568;DHT22;53422;49.296;6.900;2023-01-01T05:36:07;10.70;99.90
66568;DHT22;53422;49.296;6.900;2023-01-01T05:38:34;10.60;99.90
66568;DHT22;53422;49.296;6.900;2023-01-01T05:41:07;10.60;99.90
66568;DHT22;53422;49.296;6.900;2023-01-01T05:43:34;10.60;99.90
66568;DHT22;53422;49.296;6.900;2023-01-01T05:46:05;10.50;99.90
66568;DHT22;53422;49.296;6.900;2023-01-01T05:48:31;10.50;99.90
66568;DHT22;53422;49.296;6.900;2023-01-01T05:51:07;10.60;99.90
66568;DHT22;53422;49.296;6.900;2023-01-01T05:53:33;10.60;99.90
66568;DHT22;53422;49.296;6.900;2023-01-01T05:56:00;10.50;99.90
66568;DHT22;53422;49.296;6.900;2023-01-01T05:58:26;10.50;99.90
66568;DHT22;53422;49.296;6.900;2023-01-01T06:00:53;10.50;99.90
66568;DHT22;53422;49.296;6.900;2023-01-01T06:03:18;10.50;99.90
66568;DHT22;53422;49.296;6.900;2023-01-01T06:05:44;10.50;99.90
66568;DHT22;53422;49.296;6.900;2023-01-01T06:08:11;10.70;99.90
66568;DHT22;53422;49.296;6.900;2023-01-01T06:10:37;10.70;99.90
66568;DHT22;53422;49.296;6.900;2023-01-01T06:13:03;10.60;99.90
66568;DHT22;53422;49.296;6.900;2023-01-01T06:15:29;10.70;99.90
66568;DHT22;53422;49.296;6.900;2023-01-01T06:17:56;10.60;99.90
66568;DHT22;53422;49.296;6.900;2023-01-01T06:20:21;10.70;99.90
66568;DHT22;53422;49.296;6.900;2023-01-01T06:22:47;10.60;99.90
66568;DHT22;53422;49.296;6.900;2023-01-01T06:25:13;10.80;99.90
66568;DHT22;53422;49.296;6.900;2023-01-01T06:27:38;10.60;99.90
66568;DHT22;53422;49.296;6.900;2023-01-01T06:30:05;10.60;99.90
66568;DHT22;53422;49.296;6.900;2023-01-01T06:32:31;10.70;99.90
66568;DHT22;53422;49.296;6.900;2023-01-01T06:34:57;10.60;99.90
66568;DHT22;53422;49.296;6.900;2023-01-01T06:37:23;10.70;99.90
66568;DHT22;53422;49.296;6.900;2023-01-01T06:39:48;10.60;99.90
66568;DHT22;53422;49.296;6.900;2023-01-01T06:42:14;10.70;99.90
66568;DHT22;53422;49.296;6.900;2023-01-01T06:44:40;10.80;99.90
66568;DHT22;53422;49.296;6.900;2023-01-01T06:47:06;10.80;99.90
66568;DHT22;53422;49.296;6.900;2023-01-01T06:49:32;10.70;99.90
66568;DHT22;53422;49.296;6.900;2023-01-01T06:51:57;10.50;99.90
66568;DHT22;53422;49.296;6.900;2023-01-01T06:54:23;10.60;99.90
66568;DHT22;53422;49.296;6.900;2023-01-01T06:56:49;10.70;99.90
66568;DHT22;53422;49.296;6.900;2023-01-01T06:59:17;10.70;99.90
66568;DHT22;53422;49.296;6.900;2023-01-01T07:01:43;10.60;99.90
66568;DHT22;53422;49.296;6.900;2023-01-01T07:04:15;10.50;99.90
66568;DHT22;53422;49.296;6.900;2023-01-01T07:06:41;10.60;99.90
66568;DHT22;53422;49.296;6.900;2023-01-01T07:09:07;10.70;99.90
66568;DHT22;53422;49.296;6.900;2023-01-01T07:11:34;10.80;99.90
66568;DHT22;53422;49.296;6.900;2023-01-01T07:14:00;10.70;99.90
66568;DHT22;53422;49.296;6.900;2023-01-01T07:16:26;10.50;99.90
66568;DHT22;53422;49.296;6.900;2023-01-01T07:18:51;10.60;99.90
66568;DHT22;53422;49.296;6.900;2023-01-01T07:21:40;10.60;99.90
66568;DHT22;53422;49.296;6.900;2023-01-01T07:24:09;10.50;99.90
66568;DHT22;53422;49.296;6.900;2023-01-01T07:26:35;10.50;99.90
66568;DHT22;53422;49.296;6.900;2023-01-01T07:29:01;10.50;99.90
66568;DHT22;53422;49.296;6.900;2023-01-01T07:31:27;10.50;99.90
66568;DHT22;53422;49.296;6.900;2023-01-01T07:33:52;10.50;99.90
66568;DHT22;53422;49.296;6.900;2023-01-01T07:36:18;10.50;99.90
66568;DHT22;53422;49.296;6.900;2023-01-01T07:38:43;10.50;99.90
66568;DHT22;53422;49.296;6.900;2023-01-01T07:41:09;10.60;99.90
66568;DHT22;53422;49.296;6.900;2023-01-01T07:43:35;10.50;99.90
66568;DHT22;53422;49.296;6.900;2023-01-01T07:46:01;10.40;99.90
66568;DHT22;53422;49.296;6.900;2023-01-01T07:48:27;10.40;99.90
66568;DHT22;53422;49.296;6.900;2023-01-01T07:50:53;10.40;99.90
66568;DHT22;53422;49.296;6.900;2023-01-01T07:53:18;10.50;99.90
66568;DHT22;53422;49.296;6.900;2023-01-01T07:55:44;10.50;99.90
66568;DHT22;53422;49.296;6.900;2023-01-01T07:58:11;10.50;99.90
66568;DHT22;53422;49.296;6.900;2023-01-01T08:00:37;10.50;99.90
66568;DHT22;53422;49.296;6.900;2023-01-01T08:03:04;10.40;99.90
66568;DHT22;53422;49.296;6.900;2023-01-01T08:05:30;10.40;99.90
66568;DHT22;53422;49.296;6.900;2023-01-01T08:07:55;10.40;99.90
66568;DHT22;53422;49.296;6.900;2023-01-01T08:10:21;10.50;99.90
66568;DHT22;53422;49.296;6.900;2023-01-01T08:12:47;10.40;99.90
66568;DHT22;53422;49.296;6.900;2023-01-01T08:15:14;10.40;99.90
66568;DHT22;53422;49.296;6.900;2023-01-01T08:17:40;10.50;99.90
66568;DHT22;53422;49.296;6.900;2023-01-01T08:20:06;10.40;99.90
66568;DHT22;53422;49.296;6.900;2023-01-01T08:22:32;10.40;99.90
66568;DHT22;53422;49.296;6.900;2023-01-01T08:24:58;10.30;99.90
66568;DHT22;53422;49.296;6.900;2023-01-01T08:27:23;10.40;99.90
66568;DHT22;53422;49.296;6.900;2023-01-01T08:29:49;10.50;99.90
66568;DHT22;53422;49.296;6.900;2023-01-01T08:32:14;10.40;99.90
66568;DHT22;53422;49.296;6.900;2023-01-01T08:34:40;10.40;99.90
66568;DHT22;53422;49.296;6.900;2023-01-01T08:37:09;10.50;99.90
66568;DHT22;53422;49.296;6.900;2023-01-01T08:39:36;10.60;99.90
66568;DHT22;53422;49.296;6.900;2023-01-01T08:42:01;10.50;99.90
66568;DHT22;53422;49.296;6.900;2023-01-01T08:44:27;10.50;99.90
66568;DHT22;53422;49.296;6.900;2023-01-01T08:46:52;10.50;99.90
66568;DHT22;53422;49.296;6.900;2023-01-01T08:49:18;10.50;99.90
66568;DHT22;53422;49.296;6.900;2023-01-01T08:51:44;10.50;99.90
66568;DHT22;53422;49.296;6.900;2023-01-01T08:54:09;10.50;99.90
66568;DHT22;53422;49.296;6.900;2023-01-01T08:56:35;10.50;99.90
66568;DHT22;53422;49.296;6.900;2023-01-01T08:59:02;10.50;99.90
66568;DHT22;53422;49.296;6.900;2023-01-01T09:01:27;10.60;99.90
66568;DHT22;53422;49.296;6.900;2023-01-01T09:03:53;10.60;99.90
66568;DHT22;53422;49.296;6.900;2023-01-01T09:06:19;10.70;99.90
66568;DHT22;53422;49.296;6.900;2023-01-01T09:08:45;10.60;99.90
66568;DHT22;53422;49.296;6.900;2023-01-01T09:11:22;10.60;99.90
66568;DHT22;53422;49.296;6.900;2023-01-01T09:13:48;10.60;99.90
66568;DHT22;53422;49.296;6.900;2023-01-01T09:16:14;10.60;99.90
66568;DHT22;53422;49.296;6.900;2023-01-01T09:18:39;10.70;99.90
66568;DHT22;53422;49.296;6.900;2023-01-01T09:21:05;10.80;99.90
66568;DHT22;53422;49.296;6.900;2023-01-01T09:23:30;11.00;99.90
66568;DHT22;53422;49.296;6.900;2023-01-01T09:26:07;10.90;99.90
66568;DHT22;53422;49.296;6.900;2023-01-01T09:28:34;10.90;99.90
66568;DHT22;53422;49.296;6.900;2023-01-01T09:31:00;10.90;99.90
66568;DHT22;53422;49.296;6.900;2023-01-01T09:33:26;10.90;99.90
66568;DHT22;53422;49.296;6.900;2023-01-01T09:35:53;10.90;99.90
66568;DHT22;53422;49.296;6.900;2023-01-01T09:38:18;10.90;99.90
66568;DHT22;53422;49.296;6.900;2023-01-01T09:41:01;11.00;99.90
66568;DHT22;53422;49.296;6.900;2023-01-01T09:46:08;11.00;99.90
66568;DHT22;53422;49.296;6.900;2023-01-01T09:48:38;11.10;99.90
66568;DHT22;53422;49.296;6.900;2023-01-01T09:51:10;11.20;99.90
66568;DHT22;53422;49.296;6.900;2023-01-01T09:53:54;11.70;99.90
66568;DHT22;53422;49.296;6.900;2023-01-01T09:56:25;11.80;99.90
66568;DHT22;53422;49.296;6.900;2023-01-01T09:58:52;11.50;99.90
66568;DHT22;53422;49.296;6.900;2023-01-01T10:01:29;11.70;99.90
66568;DHT22;53422;49.296;6.900;2023-01-01T10:04:01;11.50;99.90
66568;DHT22;53422;49.296;6.900;2023-01-01T10:06:33;11.40;99.90
66568;DHT22;53422;49.296;6.900;2023-01-01T10:09:21;11.30;99.90
66568;DHT22;53422;49.296;6.900;2023-01-01T10:14:35;11.40;99.90
66568;DHT22;53422;49.296;6.900;2023-01-01T10:17:09;11.60;99.90
66568;DHT22;53422;49.296;6.900;2023-01-01T10:19:47;11.40;99.90
66568;DHT22;53422;49.296;6.900;2023-01-01T10:22:19;11.50;99.90
66568;DHT22;53422;49.296;6.900;2023-01-01T10:25:39;11.60;99.90
66568;DHT22;53422;49.296;6.900;2023-01-01T10:28:04;11.50;99.90
66568;DHT22;53422;49.296;6.900;2023-01-01T10:30:31;11.70;99.90
66568;DHT22;53422;49.296;6.900;2023-01-01T10:32:58;11.70;99.90
66568;DHT22;53422;49.296;6.900;2023-01-01T10:35:25;11.60;99.90
66568;DHT22;53422;49.296;6.900;2023-01-01T10:37:59;11.40;99.90
66568;DHT22;53422;49.296;6.900;2023-01-01T10:40:27;11.40;99.90
66568;DHT22;53422;49.296;6.900;2023-01-01T10:42:58;11.30;99.90
66568;DHT22;53422;49.296;6.900;2023-01-01T10:45:35;11.40;99.90
66568;DHT22;53422;49.296;6.900;2023-01-01T10:48:21;11.50;99.90
66568;DHT22;53422;49.296;6.900;2023-01-01T10:50:49;11.50;99.90
66568;DHT22;53422;49.296;6.900;2023-01-01T10:55:59;11.40;99.90
66568;DHT22;53422;49.296;6.900;2023-01-01T10:58:49;11.50;99.90
66568;DHT22;53422;49.296;6.900;2023-01-01T11:01:30;11.70;99.90
66568;DHT22;53422;49.296;6.900;2023-01-01T11:04:20;11.50;99.90
66568;DHT22;53422;49.296;6.900;2023-01-01T11:06:46;11.50;99.90
66568;DHT22;53422;49.296;6.900;2023-01-01T11:09:20;11.50;99.90
66568;DHT22;53422;49.296;6.900;2023-01-01T11:11:53;11.50;99.90
66568;DHT22;53422;49.296;6.900;2023-01-01T11:14:49;11.60;99.90
66568;DHT22;53422;49.296;6.900;2023-01-01T11:17:29;11.70;99.90
66568;DHT22;53422;49.296;6.900;2023-01-01T11:19:56;11.70;99.90
66568;DHT22;53422;49.296;6.900;2023-01-01T11:25:26;11.70;99.90
66568;DHT22;53422;49.296;6.900;2023-01-01T11:28:20;11.70;99.90
66568;DHT22;53422;49.296;6.900;2023-01-01T11:33:31;11.80;99.90
66568;DHT22;53422;49.296;6.900;2023-01-01T11:35:57;11.80;99.90
66568;DHT22;53422;49.296;6.900;2023-01-01T11:38:24;11.70;99.90
66568;DHT22;53422;49.296;6.900;2023-01-01T11:40:52;11.70;99.90
66568;DHT22;53422;49.296;6.900;2023-01-01T11:43:24;11.70;99.90
66568;DHT22;53422;49.296;6.900;2023-01-01T11:45:54;11.80;99.90
66568;DHT22;53422;49.296;6.900;2023-01-01T11:48:26;11.80;99.90
66568;DHT22;53422;49.296;6.900;2023-01-01T11:50:57;11.80;99.90
66568;DHT22;53422;49.296;6.900;2023-01-01T11:53:37;11.80;99.90
66568;DHT22;53422;49.296;6.900;2023-01-01T11:56:19;11.70;99.90
66568;DHT22;53422;49.296;6.900;2023-01-01T11:58:57;11.70;99.90
66568;DHT22;53422;49.296;6.900;2023-01-01T12:01:48;12.00;99.90
66568;DHT22;53422;49.296;6.900;2023-01-01T12:04:31;12.10;99.90
66568;DHT22;53422;49.296;6.900;2023-01-01T12:07:09;12.20;99.90
66568;DHT22;53422;49.296;6.900;2023-01-01T12:12:14;12.00;99.90
66568;DHT22;53422;49.296;6.900;2023-01-01T12:17:21;11.80;99.90
66568;DHT22;53422;49.296;6.900;2023-01-01T12:20:01;11.70;99.90
66568;DHT22;53422;49.296;6.900;2023-01-01T12:22:27;11.70;99.90
66568;DHT22;53422;49.296;6.900;2023-01-01T12:24:54;11.70;99.90
66568;DHT22;53422;49.296;6.900;2023-01-01T12:57:10;11.70;99.90
66568;DHT22;53422;49.296;6.900;2023-01-01T12:59:39;11.60;99.90
66568;DHT22;53422;49.296;6.900;2023-01-01T13:02:17;11.70;99.90
66568;DHT22;53422;49.296;6.900;2023-01-01T13:04:45;11.80;99.90
66568;DHT22;53422;49.296;6.900;2023-01-01T13:07:12;11.80;99.90
66568;DHT22;53422;49.296;6.900;2023-01-01T13:09:42;11.70;99.90
66568;DHT22;53422;49.296;6.900;2023-01-01T13:12:16;11.70;99.90
66568;DHT22;53422;49.296;6.900;2023-01-01T13:14:45;11.80;99.90
66568;DHT22;53422;49.296;6.900;2023-01-01T13:17:24;11.70;99.90
66568;DHT22;53422;49.296;6.900;2023-01-01T13:20:19;11.80;99.90
66568;DHT22;53422;49.296;6.900;2023-01-01T13:22:47;11.80;99.90
66568;DHT22;53422;49.296;6.900;2023-01-01T13:33:22;11.80;99.90
66568;DHT22;53422;49.296;6.900;2023-01-01T13:38:56;11.70;99.90
66568;DHT22;53422;49.296;6.900;2023-01-01T13:41:29;11.70;99.90
66568;DHT22;53422;49.296;6.900;2023-01-01T13:46:36;11.80;99.90
66568;DHT22;53422;49.296;6.900;2023-01-01T14:05:30;11.90;99.90
66568;DHT22;53422;49.296;6.900;2023-01-01T14:07:58;11.70;99.90
66568;DHT22;53422;49.296;6.900;2023-01-01T14:10:34;11.80;99.90
66568;DHT22;53422;49.296;6.900;2023-01-01T14:13:14;11.70;99.90
66568;DHT22;53422;49.296;6.900;2023-01-01T14:15:56;11.70;99.90
66568;DHT22;53422;49.296;6.900;2023-01-01T14:18:31;11.70;99.90
66568;DHT22;53422;49.296;6.900;2023-01-01T14:20:58;11.70;99.90
66568;DHT22;53422;49.296;6.900;2023-01-01T14:23:36;11.70;99.90
66568;DHT22;53422;49.296;6.900;2023-01-01T14:26:08;11.70;99.90
66568;DHT22;53422;49.296;6.900;2023-01-01T14:28:37;11.70;99.90
66568;DHT22;53422;49.296;6.900;2023-01-01T14:31:08;11.70;99.90
66568;DHT22;53422;49.296;6.900;2023-01-01T14:33:35;11.80;99.90
66568;DHT22;53422;49.296;6.900;2023-01-01T14:36:03;11.80;99.90
66568;DHT22;53422;49.296;6.900;2023-01-01T14:38:34;11.80;99.90
66568;DHT22;53422;49.296;6.900;2023-01-01T14:43:39;11.70;99.90
66568;DHT22;53422;49.296;6.900;2023-01-01T14:46:06;11.80;99.90
66568;DHT22;53422;49.296;6.900;2023-01-01T14:48:33;11.80;99.90
66568;DHT22;53422;49.296;6.900;2023-01-01T14:50:59;11.70;99.90
66568;DHT22;53422;49.296;6.900;2023-01-01T14:53:32;11.80;99.90
66568;DHT22;53422;49.296;6.900;2023-01-01T14:55:58;11.70;99.90
66568;DHT22;53422;49.296;6.900;2023-01-01T14:58:26;11.70;99.90
66568;DHT22;53422;49.296;6.900;2023-01-01T15:00:53;11.70;99.90
66568;DHT22;53422;49.296;6.900;2023-01-01T15:03:22;11.70;99.90
66568;DHT22;53422;49.296;6.900;2023-01-01T15:05:59;11.70;99.90
66568;DHT22;53422;49.296;6.900;2023-01-01T15:08:25;11.70;99.90
66568;DHT22;53422;49.296;6.900;2023-01-01T15:10:52;11.70;99.90
66568;DHT22;53422;49.296;6.900;2023-01-01T15:13:25;11.70;99.90
66568;DHT22;53422;49.296;6.900;2023-01-01T15:15:56;11.70;99.90
66568;DHT22;53422;49.296;6.900;2023-01-01T15:18:44;11.70;99.90
66568;DHT22;53422;49.296;6.900;2023-01-01T15:21:35;11.70;99.90
66568;DHT22;53422;49.296;6.900;2023-01-01T15:24:08;11.70;99.90
66568;DHT22;53422;49.296;6.900;2023-01-01T15:26:43;11.60;99.90
66568;DHT22;53422;49.296;6.900;2023-01-01T15:29:16;11.70;99.90
66568;DHT22;53422;49.296;6.900;2023-01-01T15:31:48;11.70;99.90
66568;DHT22;53422;49.296;6.900;2023-01-01T15:37:13;11.70;99.90
66568;DHT22;53422;49.296;6.900;2023-01-01T15:39:51;11.70;99.90
66568;DHT22;53422;49.296;6.900;2023-01-01T15:42:34;11.60;99.90
66568;DHT22;53422;49.296;6.900;2023-01-01T15:47:38;11.70;99.90
66568;DHT22;53422;49.296;6.900;2023-01-01T15:52:44;11.70;99.90
66568;DHT22;53422;49.296;6.900;2023-01-01T15:55:15;11.70;99.90
66568;DHT22;53422;49.296;6.900;2023-01-01T15:57:46;11.70;99.90
66568;DHT22;53422;49.296;6.900;2023-01-01T16:00:27;11.80;99.90
66568;DHT22;53422;49.296;6.900;2023-01-01T16:02:58;11.80;99.90
66568;DHT22;53422;49.296;6.900;2023-01-01T16:05:25;11.90;99.90
66568;DHT22;53422;49.296;6.900;2023-01-01T16:08:04;12.00;99.90
66568;DHT22;53422;49.296;6.900;2023-01-01T16:10:30;11.90;99.90
66568;DHT22;53422;49.296;6.900;2023-01-01T16:12:57;11.80;99.90
66568;DHT22;53422;49.296;6.900;2023-01-01T16:15:23;11.80;99.90
66568;DHT22;53422;49.296;6.900;2023-01-01T16:17:49;11.70;99.90
66568;DHT22;53422;49.296;6.900;2023-01-01T16:20:16;11.80;99.90
66568;DHT22;53422;49.296;6.900;2023-01-01T16:22:43;11.80;99.90
66568;DHT22;53422;49.296;6.900;2023-01-01T16:25:20;11.80;99.90
66568;DHT22;53422;49.296;6.900;2023-01-01T16:27:47;11.70;99.90
66568;DHT22;53422;49.296;6.900;2023-01-01T16:30:14;11.60;99.90
66568;DHT22;53422;49.296;6.900;2023-01-01T16:32:40;11.60;99.90
66568;DHT22;53422;49.296;6.900;2023-01-01T16:35:11;11.50;99.90
66568;DHT22;53422;49.296;6.900;2023-01-01T16:37:37;11.70;99.90
66568;DHT22;53422;49.296;6.900;2023-01-01T16:40:03;11.80;99.90
66568;DHT22;53422;49.296;6.900;2023-01-01T16:42:29;11.70;99.90
66568;DHT22;53422;49.296;6.900;2023-01-01T16:44:55;11.70;99.90
66568;DHT22;53422;49.296;6.900;2023-01-01T16:47:20;11.70;99.90
66568;DHT22;53422;49.296;6.900;2023-01-01T16:49:47;11.70;99.90
66568;DHT22;53422;49.296;6.900;2023-01-01T16:52:13;11.70;99.90
66568;DHT22;53422;49.296;6.900;2023-01-01T16:54:38;11.70;99.90
66568;DHT22;53422;49.296;6.900;2023-01-01T16:57:04;11.60;99.90
66568;DHT22;53422;49.296;6.900;2023-01-01T16:59:30;11.60;99.90
66568;DHT22;53422;49.296;6.900;2023-01-01T17:01:55;11.70;99.90
66568;DHT22;53422;49.296;6.900;2023-01-01T17:04:21;11.70;99.90
66568;DHT22;53422;49.296;6.900;2023-01-01T17:06:47;11.80;99.90
66568;DHT22;53422;49.296;6.900;2023-01-01T17:09:12;11.70;99.90
66568;DHT22;53422;49.296;6.900;2023-01-01T17:11:40;11.80;99.90
66568;DHT22;53422;49.296;6.900;2023-01-01T17:14:05;11.70;99.90
66568;DHT22;53422;49.296;6.900;2023-01-01T17:16:31;11.70;99.90
66568;DHT22;53422;49.296;6.900;2023-01-01T17:18:57;11.80;99.90
66568;DHT22;53422;49.296;6.900;2023-01-01T17:21:23;11.70;99.90
66568;DHT22;53422;49.296;6.900;2023-01-01T17:23:49;11.70;99.90
66568;DHT22;53422;49.296;6.900;2023-01-01T17:26:19;11.70;99.90
66568;DHT22;53422;49.296;6.900;2023-01-01T17:28:47;11.80;99.90
66568;DHT22;53422;49.296;6.900;2023-01-01T17:31:18;11.80;99.90
66568;DHT22;53422;49.296;6.900;2023-01-01T17:33:45;11.90;99.90
66568;DHT22;53422;49.296;6.900;2023-01-01T17:36:11;11.80;99.90
66568;DHT22;53422;49.296;6.900;2023-01-01T17:38:37;11.90;99.90
66568;DHT22;53422;49.296;6.900;2023-01-01T17:41:11;11.80;99.90